BCS5780 EYVI-EVRA
Flight info
| Callsign | BCS5780 |
|---|---|
| Flight time | 0h 29m |
| Altitude | 20000 |
| Route | ATMEZ DCT ERIVA |
| Aircraft | A306/H-SDE3FGHIRWY/LB1 |
Departure
| Time | 2026-05-06 16:13 |
|---|---|
| Airport | Vilnius International Airport (EYVI) |
Arrival
| Time | 2026-05-06 16:42 |
|---|---|
| Airport | Riga International Airport (EVRA) |
| Time | Latitude | Longitude | Altitude | Speed | Heading |
|---|---|---|---|---|---|
| 2026-05-06 15:45 | 54.64384 | 25.28762 | 659 ft | 0 kts | 241° |
| 2026-05-06 16:08 | 54.64382 | 25.28756 | 659 ft | 1 kts | 241° |
| 2026-05-06 16:08 | 54.64365 | 25.28702 | 658 ft | 13 kts | 241° |
| 2026-05-06 16:08 | 54.64322 | 25.28666 | 659 ft | 7 kts | 178° |
| 2026-05-06 16:09 | 54.64265 | 25.28674 | 658 ft | 11 kts | 175° |
| 2026-05-06 16:09 | 54.64167 | 25.28689 | 655 ft | 15 kts | 175° |
| 2026-05-06 16:09 | 54.64062 | 25.28706 | 650 ft | 16 kts | 179° |
| 2026-05-06 16:09 | 54.63954 | 25.28646 | 645 ft | 18 kts | 201° |
| 2026-05-06 16:10 | 54.63830 | 25.28561 | 645 ft | 21 kts | 202° |
| 2026-05-06 16:10 | 54.63686 | 25.28462 | 637 ft | 24 kts | 201° |
| 2026-05-06 16:10 | 54.63525 | 25.28353 | 627 ft | 26 kts | 201° |
| 2026-05-06 16:10 | 54.63361 | 25.28232 | 624 ft | 25 kts | 202° |
| 2026-05-06 16:11 | 54.63207 | 25.28127 | 627 ft | 23 kts | 201° |
| 2026-05-06 16:11 | 54.63056 | 25.28025 | 624 ft | 24 kts | 201° |
| 2026-05-06 16:11 | 54.63006 | 25.28016 | 621 ft | 5 kts | 147° |
| 2026-05-06 16:11 | 54.62983 | 25.28082 | 614 ft | 10 kts | 112° |
| 2026-05-06 16:12 | 54.62957 | 25.28205 | 621 ft | 11 kts | 97° |
| 2026-05-06 16:12 | 54.62997 | 25.28287 | 621 ft | 11 kts | 25° |
| 2026-05-06 16:12 | 54.63201 | 25.28429 | 622 ft | 66 kts | 22° |
| 2026-05-06 16:12 | 54.63849 | 25.28877 | 642 ft | 132 kts | 22° |
| 2026-05-06 16:13 | 54.64860 | 25.29603 | 959 ft | 173 kts | 22° |
| 2026-05-06 16:13 | 54.66081 | 25.30318 | 1849 ft | 197 kts | 21° |
| 2026-05-06 16:13 | 54.67508 | 25.30999 | 2626 ft | 224 kts | 17° |
| 2026-05-06 16:13 | 54.69136 | 25.30964 | 3014 ft | 250 kts | 345° |
| 2026-05-06 16:14 | 54.70809 | 25.30004 | 3506 ft | 264 kts | 343° |
| 2026-05-06 16:14 | 54.72683 | 25.29493 | 3980 ft | 281 kts | 352° |
| 2026-05-06 16:14 | 54.74659 | 25.29106 | 4762 ft | 289 kts | 352° |
| 2026-05-06 16:14 | 54.76675 | 25.28774 | 5624 ft | 293 kts | 351° |
| 2026-05-06 16:15 | 54.78728 | 25.28439 | 6464 ft | 299 kts | 350° |
| 2026-05-06 16:15 | 54.80817 | 25.28105 | 7410 ft | 302 kts | 349° |
| 2026-05-06 16:15 | 54.82921 | 25.27773 | 8411 ft | 304 kts | 349° |
| 2026-05-06 16:15 | 54.85030 | 25.27441 | 9387 ft | 305 kts | 348° |
| 2026-05-06 16:16 | 54.87157 | 25.27103 | 10224 ft | 309 kts | 348° |
| 2026-05-06 16:16 | 54.89359 | 25.26745 | 10645 ft | 328 kts | 349° |
| 2026-05-06 16:16 | 54.91692 | 25.26366 | 10994 ft | 345 kts | 349° |
| 2026-05-06 16:16 | 54.94144 | 25.25972 | 11313 ft | 362 kts | 350° |
| 2026-05-06 16:17 | 54.96711 | 25.25562 | 11605 ft | 378 kts | 350° |
| 2026-05-06 16:17 | 54.99342 | 25.25142 | 12009 ft | 390 kts | 350° |
| 2026-05-06 16:17 | 55.02067 | 25.24711 | 12567 ft | 397 kts | 350° |
| 2026-05-06 16:17 | 55.04838 | 25.24273 | 13161 ft | 401 kts | 350° |
| 2026-05-06 16:18 | 55.07628 | 25.23828 | 13764 ft | 405 kts | 350° |
| 2026-05-06 16:18 | 55.10450 | 25.23377 | 14301 ft | 408 kts | 350° |
| 2026-05-06 16:18 | 55.13290 | 25.22921 | 14854 ft | 412 kts | 350° |
| 2026-05-06 16:18 | 55.16162 | 25.22459 | 15422 ft | 415 kts | 350° |
| 2026-05-06 16:19 | 55.19039 | 25.21995 | 15983 ft | 418 kts | 350° |
| 2026-05-06 16:19 | 55.21947 | 25.21526 | 16545 ft | 421 kts | 350° |
| 2026-05-06 16:19 | 55.24881 | 25.21051 | 17098 ft | 425 kts | 350° |
| 2026-05-06 16:19 | 55.27836 | 25.20573 | 17653 ft | 428 kts | 350° |
| 2026-05-06 16:20 | 55.30791 | 25.19892 | 18179 ft | 427 kts | 343° |
| 2026-05-06 16:20 | 55.33670 | 25.18566 | 18644 ft | 428 kts | 339° |
| 2026-05-06 16:20 | 55.36525 | 25.17072 | 19074 ft | 430 kts | 338° |
| 2026-05-06 16:20 | 55.39408 | 25.15544 | 19557 ft | 433 kts | 338° |
| 2026-05-06 16:21 | 55.42297 | 25.14017 | 19799 ft | 434 kts | 338° |
| 2026-05-06 16:21 | 55.45161 | 25.12512 | 19827 ft | 420 kts | 338° |
| 2026-05-06 16:21 | 55.47897 | 25.11079 | 19825 ft | 402 kts | 338° |
| 2026-05-06 16:21 | 55.50514 | 25.09702 | 19832 ft | 393 kts | 338° |
| 2026-05-06 16:22 | 55.53135 | 25.08311 | 19836 ft | 394 kts | 338° |
| 2026-05-06 16:22 | 55.55767 | 25.06912 | 19847 ft | 395 kts | 338° |
| 2026-05-06 16:22 | 55.58401 | 25.05512 | 19850 ft | 395 kts | 338° |
| 2026-05-06 16:22 | 55.61031 | 25.04115 | 19847 ft | 395 kts | 338° |
| 2026-05-06 16:23 | 55.63673 | 25.02711 | 19854 ft | 396 kts | 338° |
| 2026-05-06 16:23 | 55.66324 | 25.01301 | 19850 ft | 397 kts | 338° |
| 2026-05-06 16:23 | 55.68974 | 24.99892 | 19850 ft | 398 kts | 338° |
| 2026-05-06 16:23 | 55.71624 | 24.98479 | 19859 ft | 398 kts | 338° |
| 2026-05-06 16:24 | 55.74272 | 24.97064 | 19860 ft | 398 kts | 338° |
| 2026-05-06 16:24 | 55.76931 | 24.95640 | 19867 ft | 404 kts | 338° |
| 2026-05-06 16:24 | 55.79664 | 24.94168 | 19887 ft | 418 kts | 338° |
| 2026-05-06 16:24 | 55.82455 | 24.92665 | 19873 ft | 430 kts | 338° |
| 2026-05-06 16:25 | 55.85355 | 24.91107 | 19871 ft | 440 kts | 338° |
| 2026-05-06 16:25 | 55.88320 | 24.89513 | 19880 ft | 449 kts | 338° |
| 2026-05-06 16:25 | 55.91321 | 24.87899 | 19877 ft | 452 kts | 338° |
| 2026-05-06 16:25 | 55.94335 | 24.86278 | 19894 ft | 452 kts | 338° |
| 2026-05-06 16:26 | 55.97336 | 24.84662 | 19771 ft | 443 kts | 338° |
| 2026-05-06 16:26 | 56.00237 | 24.83103 | 19498 ft | 428 kts | 338° |
| 2026-05-06 16:26 | 56.03043 | 24.81590 | 19242 ft | 415 kts | 338° |
| 2026-05-06 16:26 | 56.05761 | 24.80117 | 19016 ft | 401 kts | 338° |
| 2026-05-06 16:27 | 56.08377 | 24.78699 | 18524 ft | 387 kts | 337° |
| 2026-05-06 16:27 | 56.10947 | 24.77295 | 17588 ft | 386 kts | 337° |
| 2026-05-06 16:27 | 56.13509 | 24.75890 | 16648 ft | 382 kts | 338° |
| 2026-05-06 16:27 | 56.16025 | 24.74510 | 15848 ft | 375 kts | 338° |
| 2026-05-06 16:28 | 56.18494 | 24.73158 | 15163 ft | 366 kts | 338° |
| 2026-05-06 16:28 | 56.20903 | 24.71841 | 14629 ft | 357 kts | 338° |
| 2026-05-06 16:28 | 56.23256 | 24.70549 | 14047 ft | 350 kts | 338° |
| 2026-05-06 16:28 | 56.25529 | 24.69301 | 13530 ft | 344 kts | 338° |
| 2026-05-06 16:29 | 56.27821 | 24.68039 | 12962 ft | 344 kts | 338° |
| 2026-05-06 16:29 | 56.30108 | 24.66778 | 12414 ft | 344 kts | 338° |
| 2026-05-06 16:29 | 56.32387 | 24.65522 | 12063 ft | 338 kts | 338° |
| 2026-05-06 16:29 | 56.34591 | 24.64312 | 11967 ft | 324 kts | 337° |
| 2026-05-06 16:30 | 56.36726 | 24.63203 | 11758 ft | 317 kts | 341° |
| 2026-05-06 16:30 | 56.38209 | 24.62693 | 11390 ft | 323 kts | 346° |
| 2026-05-06 16:30 | 56.41131 | 24.61974 | 10964 ft | 318 kts | 347° |
| 2026-05-06 16:30 | 56.43299 | 24.61479 | 10776 ft | 309 kts | 347° |
| 2026-05-06 16:31 | 56.45413 | 24.61003 | 10491 ft | 303 kts | 347° |
| 2026-05-06 16:31 | 56.47499 | 24.60514 | 9914 ft | 302 kts | 347° |
| 2026-05-06 16:31 | 56.49584 | 24.60016 | 9315 ft | 300 kts | 347° |
| 2026-05-06 16:31 | 56.51624 | 24.59393 | 8723 ft | 294 kts | 338° |
| 2026-05-06 16:32 | 56.53360 | 24.57668 | 8122 ft | 279 kts | 309° |
| 2026-05-06 16:32 | 56.54374 | 24.54849 | 7698 ft | 260 kts | 283° |
| 2026-05-06 16:32 | 56.54808 | 24.51747 | 7406 ft | 250 kts | 276° |
| 2026-05-06 16:32 | 56.55121 | 24.48716 | 7088 ft | 246 kts | 275° |
| 2026-05-06 16:33 | 56.55298 | 24.46814 | 6972 ft | 252 kts | 274° |
| 2026-05-06 16:33 | 56.55494 | 24.44632 | 6933 ft | 258 kts | 274° |
| 2026-05-06 16:33 | 56.55790 | 24.41399 | 6927 ft | 263 kts | 276° |
| 2026-05-06 16:34 | 56.56728 | 24.34989 | 6399 ft | 264 kts | 294° |
| 2026-05-06 16:34 | 56.57636 | 24.32043 | 6016 ft | 267 kts | 301° |
| 2026-05-06 16:34 | 56.58299 | 24.30218 | 5836 ft | 265 kts | 302° |
| 2026-05-06 16:34 | 56.59452 | 24.27312 | 5868 ft | 303 kts | 305° |
| 2026-05-06 16:35 | 56.60724 | 24.24145 | 5811 ft | 310 kts | 305° |
| 2026-05-06 16:35 | 56.61945 | 24.21029 | 5603 ft | 294 kts | 304° |
| 2026-05-06 16:35 | 56.63080 | 24.18068 | 5355 ft | 277 kts | 304° |
| 2026-05-06 16:35 | 56.64135 | 24.15242 | 5114 ft | 261 kts | 304° |
| 2026-05-06 16:36 | 56.65102 | 24.12587 | 4781 ft | 245 kts | 304° |
| 2026-05-06 16:36 | 56.66030 | 24.10035 | 4258 ft | 240 kts | 306° |
| 2026-05-06 16:36 | 56.66952 | 24.07525 | 3677 ft | 238 kts | 307° |
| 2026-05-06 16:36 | 56.67874 | 24.05035 | 3104 ft | 236 kts | 308° |
| 2026-05-06 16:37 | 56.68779 | 24.02578 | 2630 ft | 230 kts | 308° |
| 2026-05-06 16:37 | 56.69708 | 24.00234 | 2462 ft | 227 kts | 314° |
| 2026-05-06 16:37 | 56.70794 | 23.98172 | 2448 ft | 224 kts | 322° |
| 2026-05-06 16:37 | 56.72038 | 23.96509 | 2468 ft | 220 kts | 333° |
| 2026-05-06 16:38 | 56.73341 | 23.95075 | 2462 ft | 217 kts | 334° |
| 2026-05-06 16:38 | 56.74715 | 23.94215 | 2246 ft | 209 kts | 359° |
| 2026-05-06 16:38 | 56.76120 | 23.94338 | 1994 ft | 196 kts | 11° |
| 2026-05-06 16:38 | 56.77406 | 23.94641 | 1943 ft | 176 kts | 12° |
| 2026-05-06 16:39 | 56.78590 | 23.94862 | 1951 ft | 168 kts | 10° |
| 2026-05-06 16:39 | 56.79752 | 23.95052 | 1966 ft | 166 kts | 9° |
| 2026-05-06 16:39 | 56.80862 | 23.95229 | 1967 ft | 156 kts | 10° |
| 2026-05-06 16:39 | 56.81939 | 23.95405 | 1966 ft | 154 kts | 10° |
| 2026-05-06 16:40 | 56.82949 | 23.95567 | 1963 ft | 138 kts | 11° |
| 2026-05-06 16:40 | 56.83890 | 23.95708 | 1747 ft | 137 kts | 11° |
| 2026-05-06 16:40 | 56.84853 | 23.95861 | 1271 ft | 137 kts | 9° |
| 2026-05-06 16:40 | 56.85774 | 23.96019 | 1081 ft | 131 kts | 10° |
| 2026-05-06 16:41 | 56.86683 | 23.96177 | 867 ft | 130 kts | 8° |
| 2026-05-06 16:41 | 56.87591 | 23.96323 | 698 ft | 132 kts | 7° |
| 2026-05-06 16:41 | 56.88498 | 23.96483 | 524 ft | 130 kts | 7° |
| 2026-05-06 16:41 | 56.89408 | 23.96633 | 323 ft | 131 kts | 5° |
| 2026-05-06 16:42 | 56.90319 | 23.96759 | 152 ft | 132 kts | 7° |
| 2026-05-06 16:42 | 56.91219 | 23.96925 | 49 ft | 125 kts | 6° |
| 2026-05-06 16:42 | 56.92063 | 23.97072 | 50 ft | 114 kts | 3° |
| 2026-05-06 16:42 | 56.92619 | 23.97153 | 50 ft | 40 kts | 5° |
| 2026-05-06 16:43 | 56.92755 | 23.97175 | 47 ft | 15 kts | 5° |
| 2026-05-06 16:43 | 56.92851 | 23.97191 | 46 ft | 13 kts | 5° |
| 2026-05-06 16:43 | 56.92940 | 23.97211 | 50 ft | 12 kts | 18° |
| 2026-05-06 16:43 | 56.92962 | 23.97324 | 49 ft | 9 kts | 94° |
| 2026-05-06 16:44 | 56.92958 | 23.97431 | 45 ft | 8 kts | 94° |
| 2026-05-06 16:44 | 56.92952 | 23.97531 | 50 ft | 8 kts | 96° |
| 2026-05-06 16:44 | 56.92947 | 23.97621 | 50 ft | 7 kts | 96° |
| 2026-05-06 16:44 | 56.92943 | 23.97703 | 47 ft | 6 kts | 96° |
| 2026-05-06 16:45 | 56.92951 | 23.97750 | 50 ft | 3 kts | 37° |
| 2026-05-06 16:45 | 56.92981 | 23.97766 | 50 ft | 4 kts | 7° |
| 2026-05-06 16:45 | 56.93007 | 23.97771 | 50 ft | 3 kts | 6° |
| 2026-05-06 16:45 | 56.93026 | 23.97775 | 49 ft | 2 kts | 5° |
| 2026-05-06 16:46 | 56.93028 | 23.97775 | 50 ft | 0 kts | 5° |